Hauptseite
METAR-TAF:

METAR-TAF

Flughäfen :

Flughafen München

München, Deutschland

Breite: 48-21N, Länge: 011-47E, Höhe: 453 m

Beobachtung

Neuester Wetterbericht von vor 25 Minuten, um 04:50 UTC
Wind 6 kt aus Ost
Temperatur 12°C
Luftfeuchtigkeit 82%
Luftdruck 1016 hPa
Sichtweite 10 km oder mehr
keine Wolken unter 1500 m und keine Kumulonimbus oder Gewitterwolken

METAR: EDDM 210450Z 08006KT CAVOK 12/09 Q1016 NOSIG

Zeit: 07:15 (05:15 UTC)

Prognose

Neuester Wetterbericht von vor 6 Stunden und 15 Minuten, um 23:00 UTC
Gültige Prognose vom 21 um 00 UTC bis 22 um 06 UTC
Wind 8 kt aus Ost
Sichtweite 10 km oder mehr
keine Wolken unter 1500 m und keine Kumulonimbus oder Gewitterwolken
Übergehend zu
vom 21 um 17 UTC bis 21 um 19 UTC
Wind 3 kt aus unterschiedlichen Richtungen

TAF: EDDM 202300Z 2100/2206 08008KT CAVOK BECMG 2117/2119 VRB03KT

Wetterbeobachtungen und Prognosen von mehr als 4000 Flughäfen (METAR und TAF Bericht).

Die verfügbaren Stationen werden durch gelbe und rote Markierungen auf der Karte dargestellt.

Führen Sie die Maus auf sie, um den Namen der Station zu sehen.

Darauf klicken, um die Beobachtung von Wetterbeobachtungen und Prognosen zu sehen.

Um die Karte zu ändern : klicken Sie auf den grünen Tasten mit einem schwarzen Kreuz Zum Vergrößern, auf den grünen Button mit einem Gedankenstrich zu verkleinern, oder auf die grünen Pfeile für benachbarte Karten.


METAR-TAF: